METAR Data
IDs: Format: Raw Decoded Include TAF

Data at: 1146 UTC 16 Feb 2019

PAKH 161056Z AUTO 08012KT 10SM -RA OVC011 04/03 A2997 RMK AO2 SLP151 P0004 T00390028 $
PAKH 160856Z AUTO 07009KT 5SM -RA BR OVC011 04/03 A2999 RMK AO2 SLP155 P0004 60005 T00390028 400391044 56003 $
PAKH 160835Z AUTO 08009KT 4SM -RA BR OVC011 03/03 A2999 RMK AO2 P0002 $
PAKH 160756Z AUTO 08011KT 6SM -RA BR OVC009 03/03 A2999 RMK AO2 CIG 008V012 SLP157 P0001 T00330028 $
PAKH 160748Z AUTO 08011KT 4SM -RA BR OVC009 03/03 A3000 RMK AO2 P0001 $
PAKH 160741Z AUTO 09010KT 2 1/2SM -RA BR OVC009 03/03 A3000 RMK AO2 CIG 008V012 P0001 $
PAKH 160656Z AUTO 07008KT 10SM -RA OVC011 03/02 A2998 RMK AO2 UPE07RAB07 SLP155 P0000 T00330022 $
PAKH 160556Z AUTO 06008KT 5SM UP BR OVC011 03/02 A3000 RMK AO2 UPB09 SLP159 P0000 60000 T00280017 10033 20017 56002 $
PAKH 160456Z AUTO 04004KT 9SM OVC011 03/01 A3000 RMK AO2 UPB08E54 SLP160 P0000 T00280011 $
PAKH 160422Z AUTO 07007KT 7SM UP OVC009 02/01 A2999 RMK AO2 UPB08 CIG 008V012 P0000 FZRANO $
PAKH 160356Z AUTO 06005KT 10SM OVC011 03/M01 A3000 RMK AO2 RAE11 SLP158 P0000 T00281006 $
PAKH 160338Z AUTO 03005KT 10SM OVC011 03/M01 A3000 RMK AO2 RAE11 P0000 $
PAKH 160320Z AUTO 03005KT 10SM OVC009 03/M01 A2999 RMK AO2 RAE11 P0000 $
PAKH 160256Z AUTO 01007KT 10SM -RA OVC011 02/M02 A3000 RMK AO2 UPB42E51 SLP161 P0000 60000 T00221022 58002 FZRANO $
PAKH 160231Z AUTO 02006KT 10SM -RA OVC013 02/M02 A3000 RMK AO2 P0000 FZRANO $
PAKH 160156Z AUTO 05004KT 10SM -RA OVC017 03/M02 A3001 RMK AO2 UPB45E47 SLP162 P0000 T00281017 $
PAKH 160056Z AUTO 00000KT 10SM -RA OVC029 03/M04 A3001 RMK AO2 RAB48 SLP163 P0000 T00331044 $
PAKH 152356Z AUTO 00000KT 10SM FEW041 SCT055 BKN100 02/M04 A3001 RMK AO2 SLP163 T00221039 10028 21028 56003 FZRANO $
PAKH 152256Z AUTO 11004KT 10SM FEW065 OVC095 02/M03 A3001 RMK AO2 SLP164 T00221033 FZRANO $
PAKH 152156Z AUTO 09004KT 10SM OVC095 02/M03 A3000 RMK AO2 SLP161 T00221028 FZRANO $
PAKH 152056Z AUTO 04007KT 10SM CLR 01/M03 A3002 RMK AO2 SLP165 T00111033 58003 FZRANO $
PAKH 151956Z AUTO 04007KT 10SM CLR M01/M03 A3003 RMK AO2 SLP170 T10061028 FZRANO $
PAKH 151856Z AUTO 03007KT 10SM FEW015 M02/M04 A3002 RMK AO2 SLP166 T10171039 FZRANO $
PAKH 151756Z AUTO 26004KT 10SM CLR M02/M04 A3003 RMK AO2 SLP169 T10221039 10011 21044 51002 FZRANO $
PAKH 151656Z AUTO 02006KT 10SM CLR M03/M06 A3002 RMK AO2 SLP168 T10281056 FZRANO $
PAKH 151556Z AUTO 00000KT 10SM CLR M02/M04 A3003 RMK AO2 SLP170 T10171044 FZRANO $
PAKH 151456Z AUTO 00000KT 10SM CLR M01/M03 A3002 RMK AO2 SLP167 T10111028 55004 FZRANO $
PAKH 151356Z AUTO 13005KT 10SM CLR M01/M03 A3002 RMK AO2 SLP166 T10061028 FZRANO $
PAKH 151256Z AUTO 35007KT 10SM CLR 01/M02 A3002 RMK AO2 SLP168 T00111022 FZRANO $
PAKH 151156Z AUTO 31017G22KT 10SM CLR 01/M03 A3003 RMK AO2 SLP171 T00061028 10017 20006 55000 FZRANO $
PAKH 151056Z AUTO 31014G20KT 10SM CLR 01/M03 A3003 RMK AO2 SLP170 T00111028 FZRANO $
PAKH 150956Z AUTO 32010KT 10SM CLR 01/M04 A3003 RMK AO2 SLP170 T00111044 FZRANO $
PAKH 150856Z AUTO 31012G17KT 10SM CLR 02/M03 A3003 RMK AO2 SLP171 T00171028 400171022 56002 FZRANO $
PAKH 150756Z AUTO 30009KT 10SM FEW016 SCT027 BKN048 02/M02 A3003 RMK AO2 SLP171 T00171017 FZRANO $
PAKH 150656Z AUTO 30009KT 10SM SCT020 BKN029 01/M02 A3003 RMK AO2 SLP170 T00111017 FZRANO $
PAKH 150556Z AUTO 30009KT 10SM OVC020 01/M02 A3004 RMK AO2 SLP173 T00111022 10017 21011 58005 FZRANO $
PAKH 150456Z AUTO 31003KT 10SM OVC022 01/M03 A3004 RMK AO2 SLP174 T00111028 FZRANO $
PAKH 150356Z AUTO 30007KT 10SM OVC024 01/M06 A3006 RMK AO2 SLP180 T00111056 FZRANO $
PAKH 150343Z AUTO 28005KT 10SM BKN026 00/M09 A3005 RMK AO2 FZRANO $
PAKH 150256Z AUTO 31007KT 10SM CLR M01/M09 A3005 RMK AO2 SLP178 T10061089 55004 FZRANO $
PAKH 150156Z AUTO 29008KT 10SM CLR 01/M11 A3005 RMK AO2 SLP176 T00061111 FZRANO $
PAKH 150056Z AUTO 30010KT 10SM FEW080 01/M10 A3006 RMK AO2 SLP179 T00061100 FZRANO $
PAKH 142356Z AUTO 29010G14KT 10SM CLR 01/M09 A3007 RMK AO2 SLP183 T00061094 10006 21022 58013 FZRANO $